sensor_id;sensor_type;location;lat;lon;timestamp;P1;durP1;ratioP1;P2;durP2;ratioP2
51515;SDS011;37603;55.614;37.326;2023-05-10T00:03:51;13.7;;;8.4;;
51515;SDS011;37603;55.614;37.326;2023-05-10T00:09:50;12.7;;;8.7;;
51515;SDS011;37603;55.614;37.326;2023-05-10T00:15:49;15.3;;;7.8;;
51515;SDS011;37603;55.614;37.326;2023-05-10T00:21:48;14.4;;;7.0;;
51515;SDS011;37603;55.614;37.326;2023-05-10T00:27:47;10.7;;;7.4;;
51515;SDS011;37603;55.614;37.326;2023-05-10T00:33:46;11.7;;;7.2;;
51515;SDS011;37603;55.614;37.326;2023-05-10T00:39:45;12.6;;;7.4;;
51515;SDS011;37603;55.614;37.326;2023-05-10T00:45:44;11.5;;;7.2;;
51515;SDS011;37603;55.614;37.326;2023-05-10T00:51:43;17.2;;;9.7;;
51515;SDS011;37603;55.614;37.326;2023-05-10T00:57:42;17.9;;;10.0;;
51515;SDS011;37603;55.614;37.326;2023-05-10T01:03:41;13.4;;;7.6;;
51515;SDS011;37603;55.614;37.326;2023-05-10T01:09:39;12.7;;;7.7;;
51515;SDS011;37603;55.614;37.326;2023-05-10T01:15:38;14.1;;;8.2;;
51515;SDS011;37603;55.614;37.326;2023-05-10T01:21:38;16.0;;;8.6;;
51515;SDS011;37603;55.614;37.326;2023-05-10T01:27:45;13.5;;;8.4;;
51515;SDS011;37603;55.614;37.326;2023-05-10T01:33:37;12.9;;;8.2;;
51515;SDS011;37603;55.614;37.326;2023-05-10T01:39:36;14.9;;;8.9;;
51515;SDS011;37603;55.614;37.326;2023-05-10T01:45:35;21.3;;;11.8;;
51515;SDS011;37603;55.614;37.326;2023-05-10T01:51:35;17.4;;;9.5;;
51515;SDS011;37603;55.614;37.326;2023-05-10T01:57:32;17.3;;;9.9;;
51515;SDS011;37603;55.614;37.326;2023-05-10T02:03:30;13.8;;;8.8;;
51515;SDS011;37603;55.614;37.326;2023-05-10T02:09:29;15.4;;;9.0;;
51515;SDS011;37603;55.614;37.326;2023-05-10T02:15:28;16.0;;;8.9;;
51515;SDS011;37603;55.614;37.326;2023-05-10T02:21:27;17.1;;;8.9;;
51515;SDS011;37603;55.614;37.326;2023-05-10T02:27:26;12.4;;;8.0;;
51515;SDS011;37603;55.614;37.326;2023-05-10T02:33:25;15.8;;;8.2;;
51515;SDS011;37603;55.614;37.326;2023-05-10T02:39:24;13.5;;;8.9;;
51515;SDS011;37603;55.614;37.326;2023-05-10T02:45:24;15.4;;;8.6;;
51515;SDS011;37603;55.614;37.326;2023-05-10T02:51:22;13.4;;;8.0;;
51515;SDS011;37603;55.614;37.326;2023-05-10T02:57:22;17.7;;;9.4;;
51515;SDS011;37603;55.614;37.326;2023-05-10T03:03:19;17.2;;;9.3;;
51515;SDS011;37603;55.614;37.326;2023-05-10T03:09:18;16.7;;;10.0;;
51515;SDS011;37603;55.614;37.326;2023-05-10T03:15:19;16.6;;;9.3;;
51515;SDS011;37603;55.614;37.326;2023-05-10T03:21:17;17.6;;;8.5;;
51515;SDS011;37603;55.614;37.326;2023-05-10T03:27:15;16.2;;;8.7;;
51515;SDS011;37603;55.614;37.326;2023-05-10T03:33:14;14.2;;;7.4;;
51515;SDS011;37603;55.614;37.326;2023-05-10T03:39:13;16.2;;;7.6;;
51515;SDS011;37603;55.614;37.326;2023-05-10T03:45:12;13.7;;;7.5;;
51515;SDS011;37603;55.614;37.326;2023-05-10T03:51:11;14.5;;;7.1;;
51515;SDS011;37603;55.614;37.326;2023-05-10T03:57:10;17.1;;;7.7;;
51515;SDS011;37603;55.614;37.326;2023-05-10T04:03:09;15.5;;;7.0;;
51515;SDS011;37603;55.614;37.326;2023-05-10T04:09:08;19.0;;;6.4;;
51515;SDS011;37603;55.614;37.326;2023-05-10T04:15:08;14.4;;;6.6;;
51515;SDS011;37603;55.614;37.326;2023-05-10T04:21:10;14.9;;;5.7;;
51515;SDS011;37603;55.614;37.326;2023-05-10T04:27:05;12.5;;;5.7;;
51515;SDS011;37603;55.614;37.326;2023-05-10T04:33:04;9.9;;;5.6;;
51515;SDS011;37603;55.614;37.326;2023-05-10T04:39:04;12.3;;;5.9;;
51515;SDS011;37603;55.614;37.326;2023-05-10T04:45:03;9.9;;;5.8;;
51515;SDS011;37603;55.614;37.326;2023-05-10T04:51:02;13.2;;;5.7;;
51515;SDS011;37603;55.614;37.326;2023-05-10T04:57:01;10.6;;;5.7;;
51515;SDS011;37603;55.614;37.326;2023-05-10T05:03:00;10.2;;;5.3;;
51515;SDS011;37603;55.614;37.326;2023-05-10T05:08:59;9.2;;;4.8;;
51515;SDS011;37603;55.614;37.326;2023-05-10T05:14:58;7.3;;;4.7;;
51515;SDS011;37603;55.614;37.326;2023-05-10T05:20:57;6.7;;;3.7;;
51515;SDS011;37603;55.614;37.326;2023-05-10T05:26:56;7.4;;;4.3;;
51515;SDS011;37603;55.614;37.326;2023-05-10T05:32:56;9.0;;;4.2;;
51515;SDS011;37603;55.614;37.326;2023-05-10T05:38:55;6.8;;;3.9;;
51515;SDS011;37603;55.614;37.326;2023-05-10T05:44:54;5.6;;;3.2;;
51515;SDS011;37603;55.614;37.326;2023-05-10T05:50:54;5.8;;;2.8;;
51515;SDS011;37603;55.614;37.326;2023-05-10T05:56:53;6.3;;;2.6;;
51515;SDS011;37603;55.614;37.326;2023-05-10T06:02:52;5.9;;;2.5;;
51515;SDS011;37603;55.614;37.326;2023-05-10T06:08:51;5.0;;;2.4;;
51515;SDS011;37603;55.614;37.326;2023-05-10T06:14:50;5.6;;;2.0;;
51515;SDS011;37603;55.614;37.326;2023-05-10T06:20:49;4.5;;;1.9;;
51515;SDS011;37603;55.614;37.326;2023-05-10T06:26:49;4.9;;;2.0;;
51515;SDS011;37603;55.614;37.326;2023-05-10T06:32:48;3.6;;;2.0;;
51515;SDS011;37603;55.614;37.326;2023-05-10T06:38:47;4.2;;;1.8;;
51515;SDS011;37603;55.614;37.326;2023-05-10T06:44:46;2.9;;;1.9;;
51515;SDS011;37603;55.614;37.326;2023-05-10T06:50:46;4.4;;;1.7;;
51515;SDS011;37603;55.614;37.326;2023-05-10T06:56:45;3.9;;;2.2;;
51515;SDS011;37603;55.614;37.326;2023-05-10T07:02:44;5.1;;;2.0;;
51515;SDS011;37603;55.614;37.326;2023-05-10T07:08:44;3.9;;;2.4;;
51515;SDS011;37603;55.614;37.326;2023-05-10T07:14:43;3.3;;;2.0;;
51515;SDS011;37603;55.614;37.326;2023-05-10T07:20:43;5.5;;;2.7;;
51515;SDS011;37603;55.614;37.326;2023-05-10T07:26:42;6.2;;;2.0;;
51515;SDS011;37603;55.614;37.326;2023-05-10T07:32:41;3.4;;;2.0;;
51515;SDS011;37603;55.614;37.326;2023-05-10T07:38:41;2.8;;;2.0;;
51515;SDS011;37603;55.614;37.326;2023-05-10T07:44:40;3.6;;;1.8;;
51515;SDS011;37603;55.614;37.326;2023-05-10T07:50:40;3.4;;;1.8;;
51515;SDS011;37603;55.614;37.326;2023-05-10T07:56:39;3.0;;;1.7;;
51515;SDS011;37603;55.614;37.326;2023-05-10T08:02:38;2.6;;;1.7;;
51515;SDS011;37603;55.614;37.326;2023-05-10T08:08:38;2.5;;;1.6;;
51515;SDS011;37603;55.614;37.326;2023-05-10T08:14:37;3.8;;;1.5;;
51515;SDS011;37603;55.614;37.326;2023-05-10T08:20:37;2.2;;;1.6;;
51515;SDS011;37603;55.614;37.326;2023-05-10T08:26:36;2.1;;;1.5;;
51515;SDS011;37603;55.614;37.326;2023-05-10T08:32:36;3.7;;;1.6;;
51515;SDS011;37603;55.614;37.326;2023-05-10T08:38:36;3.1;;;2.3;;
51515;SDS011;37603;55.614;37.326;2023-05-10T08:44:35;3.4;;;1.7;;
51515;SDS011;37603;55.614;37.326;2023-05-10T08:50:35;2.6;;;1.4;;
51515;SDS011;37603;55.614;37.326;2023-05-10T08:56:34;2.5;;;1.6;;
51515;SDS011;37603;55.614;37.326;2023-05-10T09:02:33;4.6;;;1.5;;
51515;SDS011;37603;55.614;37.326;2023-05-10T09:08:33;1.8;;;1.1;;
51515;SDS011;37603;55.614;37.326;2023-05-10T09:14:33;2.5;;;1.6;;
51515;SDS011;37603;55.614;37.326;2023-05-10T09:20:32;3.7;;;1.7;;
51515;SDS011;37603;55.614;37.326;2023-05-10T09:26:31;2.4;;;1.6;;
51515;SDS011;37603;55.614;37.326;2023-05-10T09:32:39;2.2;;;1.2;;
51515;SDS011;37603;55.614;37.326;2023-05-10T09:38:32;2.3;;;1.4;;
51515;SDS011;37603;55.614;37.326;2023-05-10T09:44:30;2.7;;;1.4;;
51515;SDS011;37603;55.614;37.326;2023-05-10T09:50:30;2.6;;;1.3;;
51515;SDS011;37603;55.614;37.326;2023-05-10T09:56:32;2.8;;;1.5;;
51515;SDS011;37603;55.614;37.326;2023-05-10T10:02:28;4.9;;;1.8;;
51515;SDS011;37603;55.614;37.326;2023-05-10T10:08:28;3.5;;;1.7;;
51515;SDS011;37603;55.614;37.326;2023-05-10T10:14:28;4.3;;;1.8;;
51515;SDS011;37603;55.614;37.326;2023-05-10T10:20:27;3.3;;;1.4;;
51515;SDS011;37603;55.614;37.326;2023-05-10T10:26:26;2.9;;;1.5;;
51515;SDS011;37603;55.614;37.326;2023-05-10T10:32:28;2.4;;;1.4;;
51515;SDS011;37603;55.614;37.326;2023-05-10T10:38:25;2.7;;;1.5;;
51515;SDS011;37603;55.614;37.326;2023-05-10T10:44:26;2.6;;;1.4;;
51515;SDS011;37603;55.614;37.326;2023-05-10T10:50:24;5.1;;;1.5;;
51515;SDS011;37603;55.614;37.326;2023-05-10T10:56:24;2.6;;;1.4;;
51515;SDS011;37603;55.614;37.326;2023-05-10T11:08:26;2.0;;;1.3;;
51515;SDS011;37603;55.614;37.326;2023-05-10T11:14:22;3.3;;;1.6;;
51515;SDS011;37603;55.614;37.326;2023-05-10T11:20:22;5.1;;;1.8;;
51515;SDS011;37603;55.614;37.326;2023-05-10T11:26:21;2.8;;;1.9;;
51515;SDS011;37603;55.614;37.326;2023-05-10T11:32:21;4.0;;;1.8;;
51515;SDS011;37603;55.614;37.326;2023-05-10T11:38:20;5.2;;;2.1;;
51515;SDS011;37603;55.614;37.326;2023-05-10T11:44:20;4.5;;;1.9;;
51515;SDS011;37603;55.614;37.326;2023-05-10T11:50:20;4.3;;;1.9;;
51515;SDS011;37603;55.614;37.326;2023-05-10T11:56:19;4.7;;;1.9;;
51515;SDS011;37603;55.614;37.326;2023-05-10T12:02:18;3.9;;;1.9;;
51515;SDS011;37603;55.614;37.326;2023-05-10T12:08:20;3.0;;;1.9;;
51515;SDS011;37603;55.614;37.326;2023-05-10T12:14:17;2.9;;;1.6;;
51515;SDS011;37603;55.614;37.326;2023-05-10T12:20:18;4.6;;;1.9;;
51515;SDS011;37603;55.614;37.326;2023-05-10T12:26:17;5.6;;;1.9;;
51515;SDS011;37603;55.614;37.326;2023-05-10T12:32:16;3.7;;;1.9;;
51515;SDS011;37603;55.614;37.326;2023-05-10T12:44:15;3.9;;;1.9;;
51515;SDS011;37603;55.614;37.326;2023-05-10T12:50:15;2.7;;;1.7;;
51515;SDS011;37603;55.614;37.326;2023-05-10T12:56:14;4.9;;;1.6;;
51515;SDS011;37603;55.614;37.326;2023-05-10T13:02:13;3.2;;;1.8;;
51515;SDS011;37603;55.614;37.326;2023-05-10T13:08:13;4.7;;;2.1;;
51515;SDS011;37603;55.614;37.326;2023-05-10T13:14:12;4.3;;;2.1;;
51515;SDS011;37603;55.614;37.326;2023-05-10T13:32:11;1.8;;;1.5;;
51515;SDS011;37603;55.614;37.326;2023-05-10T13:38:10;2.6;;;1.8;;
51515;SDS011;37603;55.614;37.326;2023-05-10T13:44:11;3.9;;;1.8;;
51515;SDS011;37603;55.614;37.326;2023-05-10T13:50:09;3.8;;;1.9;;
51515;SDS011;37603;55.614;37.326;2023-05-10T13:56:09;4.6;;;1.9;;
51515;SDS011;37603;55.614;37.326;2023-05-10T14:08:08;3.7;;;1.8;;
51515;SDS011;37603;55.614;37.326;2023-05-10T14:14:07;3.3;;;1.9;;
51515;SDS011;37603;55.614;37.326;2023-05-10T14:20:07;4.8;;;1.9;;
51515;SDS011;37603;55.614;37.326;2023-05-10T14:26:06;4.5;;;2.1;;
51515;SDS011;37603;55.614;37.326;2023-05-10T14:32:06;5.2;;;1.8;;
51515;SDS011;37603;55.614;37.326;2023-05-10T14:38:05;5.1;;;1.8;;
51515;SDS011;37603;55.614;37.326;2023-05-10T14:44:05;6.6;;;1.8;;
51515;SDS011;37603;55.614;37.326;2023-05-10T14:50:04;6.1;;;2.0;;
51515;SDS011;37603;55.614;37.326;2023-05-10T14:56:04;4.2;;;1.8;;
51515;SDS011;37603;55.614;37.326;2023-05-10T15:02:03;3.8;;;1.8;;
51515;SDS011;37603;55.614;37.326;2023-05-10T15:08:03;5.4;;;1.8;;
51515;SDS011;37603;55.614;37.326;2023-05-10T15:14:02;4.5;;;2.0;;
51515;SDS011;37603;55.614;37.326;2023-05-10T15:20:02;4.0;;;2.0;;
51515;SDS011;37603;55.614;37.326;2023-05-10T15:26:01;6.7;;;2.1;;
51515;SDS011;37603;55.614;37.326;2023-05-10T15:32:01;4.2;;;2.0;;
51515;SDS011;37603;55.614;37.326;2023-05-10T15:43:59;3.6;;;1.7;;
51515;SDS011;37603;55.614;37.326;2023-05-10T15:49:59;4.3;;;2.3;;
51515;SDS011;37603;55.614;37.326;2023-05-10T15:55:58;5.1;;;1.9;;
51515;SDS011;37603;55.614;37.326;2023-05-10T16:01:58;4.7;;;1.8;;
51515;SDS011;37603;55.614;37.326;2023-05-10T16:07:57;4.6;;;1.8;;
51515;SDS011;37603;55.614;37.326;2023-05-10T16:13:56;4.1;;;1.8;;
51515;SDS011;37603;55.614;37.326;2023-05-10T16:19:56;4.3;;;1.9;;
51515;SDS011;37603;55.614;37.326;2023-05-10T16:25:55;3.6;;;2.0;;
51515;SDS011;37603;55.614;37.326;2023-05-10T16:31:55;6.1;;;2.1;;
51515;SDS011;37603;55.614;37.326;2023-05-10T16:37:54;3.7;;;2.0;;
51515;SDS011;37603;55.614;37.326;2023-05-10T16:43:53;4.9;;;1.7;;
51515;SDS011;37603;55.614;37.326;2023-05-10T16:49:53;3.3;;;2.0;;
51515;SDS011;37603;55.614;37.326;2023-05-10T16:55:52;5.3;;;2.3;;
51515;SDS011;37603;55.614;37.326;2023-05-10T17:01:51;5.8;;;2.2;;
51515;SDS011;37603;55.614;37.326;2023-05-10T17:07:51;7.0;;;2.2;;
51515;SDS011;37603;55.614;37.326;2023-05-10T17:13:50;4.0;;;2.1;;
51515;SDS011;37603;55.614;37.326;2023-05-10T17:19:49;9.4;;;4.0;;
51515;SDS011;37603;55.614;37.326;2023-05-10T17:25:49;10.4;;;6.0;;
51515;SDS011;37603;55.614;37.326;2023-05-10T17:31:48;10.7;;;5.6;;
51515;SDS011;37603;55.614;37.326;2023-05-10T17:37:47;10.2;;;5.5;;
51515;SDS011;37603;55.614;37.326;2023-05-10T17:43:47;10.0;;;5.2;;
51515;SDS011;37603;55.614;37.326;2023-05-10T17:49:46;10.2;;;5.0;;
51515;SDS011;37603;55.614;37.326;2023-05-10T17:55:45;10.0;;;4.9;;
51515;SDS011;37603;55.614;37.326;2023-05-10T18:07:44;15.8;;;6.0;;
51515;SDS011;37603;55.614;37.326;2023-05-10T18:13:43;9.4;;;4.5;;
51515;SDS011;37603;55.614;37.326;2023-05-10T18:19:42;11.4;;;4.5;;
51515;SDS011;37603;55.614;37.326;2023-05-10T18:25:42;14.0;;;4.2;;
51515;SDS011;37603;55.614;37.326;2023-05-10T18:31:41;12.0;;;4.0;;
51515;SDS011;37603;55.614;37.326;2023-05-10T18:37:40;9.0;;;4.1;;
51515;SDS011;37603;55.614;37.326;2023-05-10T18:43:39;10.8;;;4.3;;
51515;SDS011;37603;55.614;37.326;2023-05-10T18:49:39;10.3;;;4.2;;
51515;SDS011;37603;55.614;37.326;2023-05-10T18:55:38;7.8;;;4.0;;
51515;SDS011;37603;55.614;37.326;2023-05-10T19:01:38;11.4;;;4.0;;
51515;SDS011;37603;55.614;37.326;2023-05-10T19:07:36;10.7;;;4.2;;
51515;SDS011;37603;55.614;37.326;2023-05-10T19:13:36;12.3;;;7.0;;
51515;SDS011;37603;55.614;37.326;2023-05-10T19:19:35;9.3;;;5.0;;
51515;SDS011;37603;55.614;37.326;2023-05-10T19:25:34;13.0;;;7.2;;
51515;SDS011;37603;55.614;37.326;2023-05-10T19:31:33;15.3;;;6.1;;
51515;SDS011;37603;55.614;37.326;2023-05-10T19:43:32;11.7;;;6.0;;
51515;SDS011;37603;55.614;37.326;2023-05-10T19:49:31;14.6;;;6.8;;
51515;SDS011;37603;55.614;37.326;2023-05-10T19:55:31;14.5;;;6.4;;
51515;SDS011;37603;55.614;37.326;2023-05-10T20:01:29;13.3;;;6.8;;
51515;SDS011;37603;55.614;37.326;2023-05-10T20:07:29;12.4;;;7.1;;
51515;SDS011;37603;55.614;37.326;2023-05-10T20:13:28;19.9;;;8.8;;
51515;SDS011;37603;55.614;37.326;2023-05-10T20:19:27;23.0;;;10.7;;
51515;SDS011;37603;55.614;37.326;2023-05-10T20:25:26;19.5;;;9.2;;
51515;SDS011;37603;55.614;37.326;2023-05-10T20:31:26;12.9;;;4.9;;
51515;SDS011;37603;55.614;37.326;2023-05-10T20:37:25;9.6;;;4.6;;
51515;SDS011;37603;55.614;37.326;2023-05-10T20:43:24;11.8;;;5.5;;
51515;SDS011;37603;55.614;37.326;2023-05-10T20:49:23;10.3;;;4.9;;
51515;SDS011;37603;55.614;37.326;2023-05-10T20:55:23;9.9;;;5.1;;
51515;SDS011;37603;55.614;37.326;2023-05-10T21:01:22;16.0;;;6.7;;
51515;SDS011;37603;55.614;37.326;2023-05-10T21:07:21;16.3;;;5.6;;
51515;SDS011;37603;55.614;37.326;2023-05-10T21:13:20;10.3;;;5.1;;
51515;SDS011;37603;55.614;37.326;2023-05-10T21:19:20;13.1;;;5.9;;
51515;SDS011;37603;55.614;37.326;2023-05-10T21:25:19;11.7;;;5.4;;
51515;SDS011;37603;55.614;37.326;2023-05-10T21:31:18;11.4;;;4.8;;
51515;SDS011;37603;55.614;37.326;2023-05-10T21:37:17;10.9;;;4.9;;
51515;SDS011;37603;55.614;37.326;2023-05-10T21:43:16;14.8;;;5.7;;
51515;SDS011;37603;55.614;37.326;2023-05-10T21:49:17;10.1;;;4.9;;
51515;SDS011;37603;55.614;37.326;2023-05-10T21:55:15;31.5;;;14.4;;
51515;SDS011;37603;55.614;37.326;2023-05-10T22:01:14;34.4;;;15.3;;
51515;SDS011;37603;55.614;37.326;2023-05-10T22:07:13;36.0;;;17.1;;
51515;SDS011;37603;55.614;37.326;2023-05-10T22:13:12;39.5;;;18.9;;
51515;SDS011;37603;55.614;37.326;2023-05-10T22:19:11;23.3;;;11.3;;
51515;SDS011;37603;55.614;37.326;2023-05-10T22:25:11;15.8;;;7.5;;
51515;SDS011;37603;55.614;37.326;2023-05-10T22:31:10;13.4;;;5.8;;
51515;SDS011;37603;55.614;37.326;2023-05-10T22:37:10;10.1;;;5.5;;
51515;SDS011;37603;55.614;37.326;2023-05-10T22:43:08;15.7;;;5.3;;
51515;SDS011;37603;55.614;37.326;2023-05-10T22:49:07;15.4;;;5.8;;
51515;SDS011;37603;55.614;37.326;2023-05-10T22:55:06;13.4;;;6.0;;
51515;SDS011;37603;55.614;37.326;2023-05-10T23:01:05;11.4;;;5.9;;
51515;SDS011;37603;55.614;37.326;2023-05-10T23:07:05;13.8;;;6.2;;
51515;SDS011;37603;55.614;37.326;2023-05-10T23:13:04;13.5;;;5.6;;
51515;SDS011;37603;55.614;37.326;2023-05-10T23:19:03;13.3;;;6.3;;
51515;SDS011;37603;55.614;37.326;2023-05-10T23:25:02;16.3;;;6.7;;
51515;SDS011;37603;55.614;37.326;2023-05-10T23:31:01;11.7;;;6.0;;
51515;SDS011;37603;55.614;37.326;2023-05-10T23:37:00;16.4;;;6.1;;
51515;SDS011;37603;55.614;37.326;2023-05-10T23:42:59;11.1;;;6.1;;
51515;SDS011;37603;55.614;37.326;2023-05-10T23:48:59;14.4;;;6.3;;
51515;SDS011;37603;55.614;37.326;2023-05-10T23:54:58;12.2;;;6.5;;
